createdAt,value
2022-12-04T00:01:42.551Z,102150.05
2022-12-04T00:04:12.748Z,102143.92
2022-12-04T00:06:42.726Z,102138.18
2022-12-04T00:09:12.618Z,102136.08
2022-12-04T00:11:42.486Z,102136.63
2022-12-04T00:14:12.511Z,102133.56
2022-12-04T00:16:42.541Z,102128.45
2022-12-04T00:19:12.663Z,102123.14
2022-12-04T00:21:44.210Z,102120.61
2022-12-04T00:24:12.447Z,102124.45
2022-12-04T00:26:42.625Z,102120.33
2022-12-04T00:29:12.593Z,102117.8
2022-12-04T00:31:43.036Z,102118.98
2022-12-04T00:34:12.519Z,102121.53
2022-12-04T00:39:12.581Z,102114.31999999999
2022-12-04T00:41:42.472Z,102116.11
2022-12-04T00:44:12.571Z,102120.37
2022-12-04T00:46:42.657Z,102120.65
2022-12-04T00:49:12.518Z,102122.49
2022-12-04T00:51:42.582Z,102117.8
2022-12-04T00:56:42.638Z,102122.99
2022-12-04T00:59:12.613Z,102116.63
2022-12-04T01:01:42.611Z,102117.67
2022-12-04T01:04:12.554Z,102120.48
2022-12-04T01:06:42.512Z,102115.06000000001
2022-12-04T01:09:12.612Z,102112.84000000001
2022-12-04T01:11:43.758Z,102117.7
2022-12-04T01:14:12.664Z,102110.69
2022-12-04T01:19:12.871Z,102099.5
2022-12-04T01:21:42.577Z,102109.31
2022-12-04T01:24:12.482Z,102105.64
2022-12-04T01:26:42.560Z,102101.9
2022-12-04T01:29:12.639Z,102104.63
2022-12-04T01:31:42.744Z,102104.6
2022-12-04T01:34:12.669Z,102110.69
2022-12-04T01:36:42.537Z,102110.88
2022-12-04T01:39:12.495Z,102105.47
2022-12-04T01:41:42.527Z,102104.21
2022-12-04T01:44:16.094Z,102109.41
2022-12-04T01:46:44.974Z,102110.0
2022-12-04T01:49:16.899Z,102105.26
2022-12-04T01:51:46.182Z,102107.06
2022-12-04T01:56:46.589Z,102103.47
2022-12-04T01:59:16.252Z,102106.12999999999
2022-12-04T02:01:49.239Z,102102.94
2022-12-04T02:06:42.506Z,102104.68
2022-12-04T02:09:12.572Z,102096.42
2022-12-04T02:11:50.008Z,102099.59
2022-12-04T02:14:22.713Z,102095.67
2022-12-04T02:16:48.866Z,102095.42
2022-12-04T02:19:31.117Z,102096.89
2022-12-04T02:21:45.032Z,102093.44
2022-12-04T02:24:24.366Z,102089.58
2022-12-04T02:26:49.396Z,102090.74
2022-12-04T02:29:22.582Z,102091.33
2022-12-04T02:31:50.625Z,102091.81999999999
2022-12-04T02:34:17.986Z,102086.44
2022-12-04T02:36:49.698Z,102099.67
2022-12-04T02:39:20.898Z,102095.26
2022-12-04T02:41:48.525Z,102093.52
2022-12-04T02:44:16.774Z,102095.58
2022-12-04T02:46:46.163Z,102091.3
2022-12-04T02:49:17.547Z,102089.95
2022-12-04T02:51:45.778Z,102093.87000000001
2022-12-04T02:54:19.419Z,102092.74
2022-12-04T02:59:19.243Z,102101.62
2022-12-04T03:01:47.731Z,102095.28
2022-12-04T03:04:16.653Z,102080.90999999999
2022-12-04T03:06:44.955Z,102083.06
2022-12-04T03:09:17.379Z,102083.37
2022-12-04T03:11:48.876Z,102082.26
2022-12-04T03:14:17.717Z,102090.03
2022-12-04T03:16:43.190Z,102081.75
2022-12-04T03:19:17.735Z,102083.78
2022-12-04T03:21:47.954Z,102082.29
2022-12-04T03:24:19.013Z,102089.03
2022-12-04T03:26:47.065Z,102096.38
2022-12-04T03:31:45.763Z,102087.91
2022-12-04T03:34:22.684Z,102083.95000000001
2022-12-04T03:36:51.108Z,102085.97
2022-12-04T03:39:20.139Z,102087.59
2022-12-04T03:41:54.101Z,102094.59000000001
2022-12-04T03:44:19.363Z,102097.61
2022-12-04T03:46:49.522Z,102089.89
2022-12-04T03:54:18.923Z,102090.09
2022-12-04T03:56:46.404Z,102084.45
2022-12-04T03:59:19.492Z,102091.36
2022-12-04T04:01:46.101Z,102085.65999999999
2022-12-04T04:06:47.949Z,102085.16
2022-12-04T04:11:46.776Z,102081.3
2022-12-04T04:14:27.562Z,102081.78
2022-12-04T04:16:58.377Z,102078.03
2022-12-04T04:19:25.221Z,102083.92
2022-12-04T04:21:54.366Z,102078.36
2022-12-04T04:24:24.558Z,102076.61
2022-12-04T04:26:46.353Z,102077.70000000001
2022-12-04T04:29:12.655Z,102080.31
2022-12-04T04:31:48.449Z,102076.9
2022-12-04T04:34:19.868Z,102077.11
2022-12-04T04:36:52.930Z,102077.03
2022-12-04T04:39:22.577Z,102079.78
2022-12-04T04:44:20.323Z,102071.23
2022-12-04T04:46:50.074Z,102069.6
2022-12-04T04:49:14.982Z,102080.88
2022-12-04T04:51:44.254Z,102075.89
2022-12-04T04:54:15.832Z,102076.05
2022-12-04T04:56:44.893Z,102077.97
2022-12-04T04:59:13.613Z,102077.23
2022-12-04T05:01:45.248Z,102076.09
2022-12-04T05:04:12.873Z,102076.44
2022-12-04T05:06:42.568Z,102083.62
2022-12-04T05:09:12.860Z,102083.34
2022-12-04T05:11:42.537Z,102083.84999999999
2022-12-04T05:14:12.639Z,102093.68
2022-12-04T05:16:42.524Z,102095.15
2022-12-04T05:19:22.486Z,102094.75
2022-12-04T05:21:42.648Z,102096.11
2022-12-04T05:24:12.535Z,102097.34999999999
2022-12-04T05:26:42.718Z,102101.22
2022-12-04T05:29:12.576Z,102097.25
2022-12-04T05:31:42.814Z,102107.25
2022-12-04T05:34:12.571Z,102107.93
2022-12-04T05:36:42.549Z,102100.12000000001
2022-12-04T05:39:12.701Z,102100.01999999999
2022-12-04T05:41:42.562Z,102115.85
2022-12-04T05:51:42.735Z,102111.47
2022-12-04T05:54:12.691Z,102112.64
2022-12-04T05:59:13.183Z,102112.23999999999
2022-12-04T06:01:43.262Z,102110.02
2022-12-04T06:04:12.767Z,102113.94
2022-12-04T06:06:42.799Z,102118.20999999999
2022-12-04T06:09:12.569Z,102116.83
2022-12-04T06:11:42.622Z,102122.03
2022-12-04T06:14:14.591Z,102124.95
2022-12-04T06:16:45.229Z,102123.05
2022-12-04T06:19:15.270Z,102126.81
2022-12-04T06:21:44.353Z,102131.81
2022-12-04T06:24:15.237Z,102132.31
2022-12-04T06:27:03.909Z,102126.81999999999
2022-12-04T06:29:13.303Z,102119.14
2022-12-04T06:31:42.655Z,102120.48999999999
2022-12-04T06:34:12.596Z,102113.51
2022-12-04T06:36:42.804Z,102114.61
2022-12-04T06:39:18.337Z,102124.92
2022-12-04T06:41:42.856Z,102118.84
2022-12-04T06:44:13.489Z,102117.44
2022-12-04T06:46:46.752Z,102120.42
2022-12-04T06:49:12.675Z,102130.97
2022-12-04T06:51:42.681Z,102120.96
2022-12-04T06:54:12.817Z,102119.65
2022-12-04T06:56:42.606Z,102121.83
2022-12-04T06:59:12.563Z,102116.17
2022-12-04T07:04:12.841Z,102120.03
2022-12-04T07:06:42.622Z,102117.3
2022-12-04T07:09:14.996Z,102123.32
2022-12-04T07:11:43.885Z,102123.72
2022-12-04T07:14:13.601Z,102118.62999999999
2022-12-04T07:16:43.068Z,102122.31
2022-12-04T07:19:13.902Z,102120.06
2022-12-04T07:21:42.993Z,102117.44
2022-12-04T07:24:15.641Z,102113.4
2022-12-04T07:26:43.193Z,102114.53
2022-12-04T07:29:12.957Z,102113.34000000001
2022-12-04T07:31:44.054Z,102114.75
2022-12-04T07:34:12.749Z,102114.92
2022-12-04T07:36:42.771Z,102114.17
2022-12-04T07:39:12.622Z,102118.92
2022-12-04T07:41:42.629Z,102118.91
2022-12-04T07:44:12.682Z,102124.17
2022-12-04T07:46:42.633Z,102123.29999999999
2022-12-04T07:49:12.797Z,102122.55
2022-12-04T07:51:42.627Z,102119.0
2022-12-04T07:54:12.640Z,102124.63
2022-12-04T07:56:42.724Z,102126.39
2022-12-04T07:59:12.583Z,102129.03
2022-12-04T08:01:42.738Z,102132.86
2022-12-04T08:04:12.798Z,102133.29
2022-12-04T08:06:42.784Z,102132.45
2022-12-04T08:09:12.646Z,102131.72
2022-12-04T08:11:42.620Z,102126.98000000001
2022-12-04T08:14:12.695Z,102127.55
2022-12-04T08:16:45.158Z,102131.65000000001
2022-12-04T08:19:12.622Z,102130.52
2022-12-04T08:21:42.639Z,102136.15999999999
2022-12-04T08:24:12.639Z,102140.56
2022-12-04T08:26:42.691Z,102141.52
2022-12-04T08:29:12.840Z,102145.12
2022-12-04T08:31:42.748Z,102149.91
2022-12-04T08:34:12.876Z,102155.02
2022-12-04T08:36:42.624Z,102154.63
2022-12-04T08:39:12.670Z,102155.75
2022-12-04T08:41:42.724Z,102164.53
2022-12-04T08:44:12.573Z,102157.73000000001
2022-12-04T08:46:43.286Z,102158.67
2022-12-04T08:49:12.817Z,102158.20999999999
2022-12-04T08:51:42.607Z,102157.89
2022-12-04T08:54:12.812Z,102159.05
2022-12-04T08:56:43.513Z,102160.53
2022-12-04T08:59:13.201Z,102159.12
2022-12-04T09:01:42.710Z,102162.87999999999
2022-12-04T09:06:42.662Z,102161.53
2022-12-04T09:09:12.815Z,102156.66
2022-12-04T09:11:44.662Z,102156.53
2022-12-04T09:14:12.724Z,102156.67
2022-12-04T09:16:42.616Z,102161.49
2022-12-04T09:19:12.652Z,102162.39
2022-12-04T09:21:42.724Z,102154.81999999999
2022-12-04T09:24:12.899Z,102164.56
2022-12-04T09:29:12.612Z,102167.47
2022-12-04T09:31:42.730Z,102172.72
2022-12-04T09:34:12.746Z,102169.08
2022-12-04T09:36:42.696Z,102179.14
2022-12-04T09:39:13.784Z,102182.39
2022-12-04T09:42:00.464Z,102180.81
2022-12-04T09:44:20.210Z,102184.07999999999
2022-12-04T09:46:51.228Z,102181.09
2022-12-04T09:49:18.358Z,102177.08
2022-12-04T09:51:43.963Z,102169.2
2022-12-04T09:54:16.259Z,102174.5
2022-12-04T09:56:46.461Z,102174.11
2022-12-04T09:59:16.427Z,102172.6
2022-12-04T10:01:46.343Z,102168.04
2022-12-04T10:06:48.917Z,102169.5
2022-12-04T10:09:19.264Z,102163.08
2022-12-04T10:11:51.515Z,102163.37
2022-12-04T10:14:27.672Z,102154.25
2022-12-04T10:16:58.182Z,102163.26000000001
2022-12-04T10:19:20.970Z,102161.01
2022-12-04T10:21:56.919Z,102154.61
2022-12-04T10:24:25.981Z,102164.17
2022-12-04T10:29:19.608Z,102147.19
2022-12-04T10:31:45.009Z,102144.39
2022-12-04T10:34:15.779Z,102141.31999999999
2022-12-04T10:36:48.447Z,102137.47
2022-12-04T10:39:20.999Z,102132.37000000001
2022-12-04T10:41:50.230Z,102131.42
2022-12-04T10:44:15.065Z,102128.67
2022-12-04T10:46:46.279Z,102137.72
2022-12-04T10:49:18.054Z,102123.08
2022-12-04T10:51:44.196Z,102127.42
2022-12-04T10:54:20.824Z,102121.83
2022-12-04T10:56:50.711Z,102119.09000000001
2022-12-04T10:59:15.145Z,102117.76999999999
2022-12-04T11:01:43.964Z,102112.62000000001
2022-12-04T11:04:21.405Z,102120.7
2022-12-04T11:06:43.369Z,102114.59
2022-12-04T11:09:21.385Z,102117.98999999999
2022-12-04T11:11:43.739Z,102111.92
2022-12-04T11:14:14.771Z,102114.65
2022-12-04T11:16:47.238Z,102111.91
2022-12-04T11:19:23.215Z,102109.86
2022-12-04T11:21:42.747Z,102104.38
2022-12-04T11:24:20.568Z,102104.18
2022-12-04T11:26:42.955Z,102100.92
2022-12-04T11:29:16.035Z,102105.64
2022-12-04T11:31:47.731Z,102109.28
2022-12-04T11:34:18.724Z,102109.7
2022-12-04T11:36:43.099Z,102107.39
2022-12-04T11:39:17.513Z,102114.12
2022-12-04T11:41:43.177Z,102111.83
2022-12-04T11:44:24.198Z,102106.84
2022-12-04T11:46:51.515Z,102107.81
2022-12-04T11:49:19.654Z,102099.37999999999
2022-12-04T11:51:54.836Z,102102.70000000001
2022-12-04T11:54:26.484Z,102097.81
2022-12-04T11:56:46.349Z,102097.09
2022-12-04T11:59:29.471Z,102095.67
2022-12-04T12:04:28.474Z,102091.74
2022-12-04T12:06:56.804Z,102082.86
2022-12-04T12:09:26.093Z,102087.3
2022-12-04T12:11:50.773Z,102083.48
2022-12-04T12:14:24.286Z,102083.81000000001
2022-12-04T12:19:30.685Z,102078.45
2022-12-04T12:21:53.570Z,102071.55
2022-12-04T12:24:24.605Z,102091.15000000001
2022-12-04T12:29:27.217Z,102089.03
2022-12-04T12:31:59.172Z,102083.06
2022-12-04T12:34:19.044Z,102091.8
2022-12-04T12:36:47.729Z,102087.92
2022-12-04T12:39:19.228Z,102089.20000000001
2022-12-04T12:41:47.988Z,102072.33
2022-12-04T12:44:18.757Z,102089.94
2022-12-04T12:46:50.479Z,102093.8
2022-12-04T12:49:16.385Z,102086.1
2022-12-04T12:51:49.788Z,102083.15
2022-12-04T12:56:50.019Z,102082.86
2022-12-04T12:59:17.258Z,102084.83
2022-12-04T13:02:00.553Z,102071.81
2022-12-04T13:04:21.316Z,102073.51999999999
2022-12-04T13:06:45.925Z,102075.23
2022-12-04T13:11:48.011Z,102045.15
2022-12-04T13:14:13.567Z,102069.08
2022-12-04T13:16:46.690Z,102065.22
2022-12-04T13:19:18.966Z,102060.72
2022-12-04T13:21:46.845Z,102057.92
2022-12-04T13:24:32.540Z,102056.84
2022-12-04T13:26:50.640Z,102052.95
2022-12-04T13:29:24.625Z,102049.33
2022-12-04T13:31:52.611Z,102046.66
2022-12-04T13:34:32.480Z,102044.65
2022-12-04T13:37:00.556Z,102046.31000000001
2022-12-04T13:39:30.097Z,102036.58
2022-12-04T13:41:43.031Z,102034.58
2022-12-04T13:44:20.186Z,102035.91
2022-12-04T13:46:52.380Z,102037.72
2022-12-04T13:49:24.612Z,102028.9
2022-12-04T13:51:44.460Z,102031.76999999999
2022-12-04T13:54:23.943Z,102030.42
2022-12-04T13:56:44.532Z,102021.2
2022-12-04T13:59:21.003Z,102030.0
2022-12-04T14:01:47.078Z,102029.9
2022-12-04T14:04:22.784Z,102036.49
2022-12-04T14:06:42.983Z,102030.08
2022-12-04T14:09:22.068Z,102029.18
2022-12-04T14:11:45.391Z,102020.04
2022-12-04T14:14:24.774Z,102027.67
2022-12-04T14:16:48.247Z,102031.76999999999
2022-12-04T14:19:27.947Z,102021.82
2022-12-04T14:21:44.935Z,102025.56
2022-12-04T14:24:16.522Z,102022.05
2022-12-04T14:27:10.700Z,102016.09999999999
2022-12-04T14:29:32.500Z,102025.01999999999
2022-12-04T14:31:42.925Z,102026.54
2022-12-04T14:34:21.350Z,102030.38
2022-12-04T14:36:46.568Z,102025.37
2022-12-04T14:39:23.821Z,102034.27
2022-12-04T14:41:42.908Z,102036.72
2022-12-04T14:44:26.194Z,102037.69
2022-12-04T14:46:47.017Z,102035.58
2022-12-04T14:49:24.708Z,102042.40999999999
2022-12-04T14:51:53.487Z,102041.41
2022-12-04T14:54:24.440Z,102034.27
2022-12-04T14:56:55.454Z,102038.92
2022-12-04T14:59:16.470Z,102044.76
2022-12-04T15:01:46.136Z,102039.56
2022-12-04T15:04:21.750Z,102042.02
2022-12-04T15:06:48.237Z,102046.15
2022-12-04T15:09:26.184Z,102059.27
2022-12-04T15:11:55.339Z,102058.7
2022-12-04T15:14:13.886Z,102053.16
2022-12-04T15:16:42.860Z,102061.85
2022-12-04T15:19:16.873Z,102074.33
2022-12-04T15:21:43.606Z,102070.19
2022-12-04T15:24:18.640Z,102074.15999999999
2022-12-04T15:26:42.818Z,102076.12000000001
2022-12-04T15:29:19.364Z,102070.47
2022-12-04T15:31:48.152Z,102079.13
2022-12-04T15:34:16.233Z,102077.28
2022-12-04T15:36:47.120Z,102083.28
2022-12-04T15:39:17.261Z,102088.2
2022-12-04T15:41:42.973Z,102076.95
2022-12-04T15:44:23.262Z,102084.86
2022-12-04T15:46:42.816Z,102094.70999999999
2022-12-04T15:49:17.968Z,102098.44
2022-12-04T15:51:43.663Z,102100.92
2022-12-04T15:54:19.334Z,102105.52
2022-12-04T15:56:42.914Z,102103.26
2022-12-04T15:59:17.060Z,102107.59000000001
2022-12-04T16:01:42.932Z,102101.65
2022-12-04T16:04:21.589Z,102097.45
2022-12-04T16:06:45.551Z,102097.36
2022-12-04T16:09:21.099Z,102092.21
2022-12-04T16:11:43.603Z,102091.18999999999
2022-12-04T16:14:16.393Z,102098.51999999999
2022-12-04T16:16:46.002Z,102099.05
2022-12-04T16:19:17.074Z,102095.87
2022-12-04T16:21:43.278Z,102090.99
2022-12-04T16:26:43.093Z,102091.06
2022-12-04T16:29:12.795Z,102094.17
2022-12-04T16:31:42.836Z,102092.42
2022-12-04T16:34:13.378Z,102089.67
2022-12-04T16:36:42.930Z,102093.98
2022-12-04T16:39:12.925Z,102098.19
2022-12-04T16:41:42.936Z,102092.75
2022-12-04T16:44:15.342Z,102095.89
2022-12-04T16:46:44.069Z,102102.94
2022-12-04T16:49:13.226Z,102101.54
2022-12-04T16:51:48.509Z,102101.22
2022-12-04T16:54:13.003Z,102099.95999999999
2022-12-04T16:59:13.153Z,102100.42
2022-12-04T17:01:45.994Z,102098.35
2022-12-04T17:04:14.096Z,102098.47
2022-12-04T17:06:44.046Z,102094.56
2022-12-04T17:09:13.484Z,102098.33
2022-12-04T17:11:43.269Z,102101.34000000001
2022-12-04T17:14:13.956Z,102098.27
2022-12-04T17:16:44.041Z,102099.95
2022-12-04T17:19:17.333Z,102097.97
2022-12-04T17:24:12.746Z,102099.45
2022-12-04T17:29:12.859Z,102102.06
2022-12-04T17:31:43.037Z,102104.36
2022-12-04T17:34:12.776Z,102101.17
2022-12-04T17:36:42.917Z,102099.82
2022-12-04T17:39:12.799Z,102090.5
2022-12-04T17:41:42.800Z,102094.76
2022-12-04T17:44:13.184Z,102103.47
2022-12-04T17:46:42.875Z,102099.97
2022-12-04T17:49:12.734Z,102100.73
2022-12-04T17:51:43.988Z,102095.26
2022-12-04T17:54:12.765Z,102094.78
2022-12-04T17:56:48.115Z,102096.19
2022-12-04T17:59:12.903Z,102093.79000000001
2022-12-04T18:01:43.036Z,102100.94
2022-12-04T18:04:12.799Z,102103.86
2022-12-04T18:06:43.880Z,102101.39
2022-12-04T18:09:16.175Z,102100.73
2022-12-04T18:11:47.296Z,102101.11
2022-12-04T18:14:15.015Z,102098.64
2022-12-04T18:19:14.792Z,102095.28
2022-12-04T18:21:42.917Z,102101.88
2022-12-04T18:24:13.465Z,102099.72
2022-12-04T18:26:45.147Z,102102.72
2022-12-04T18:29:15.195Z,102099.05
2022-12-04T18:31:43.163Z,102100.23
2022-12-04T18:34:13.938Z,102104.45999999999
2022-12-04T18:36:44.314Z,102102.66
2022-12-04T18:39:14.499Z,102101.15
2022-12-04T18:41:43.523Z,102102.5
2022-12-04T18:44:13.380Z,102108.73
2022-12-04T18:46:43.057Z,102104.97
2022-12-04T18:51:49.293Z,102113.43000000001
2022-12-04T18:56:43.762Z,102116.83
2022-12-04T19:01:42.939Z,102118.08
2022-12-04T19:04:15.723Z,102118.76999999999
2022-12-04T19:06:45.093Z,102119.84
2022-12-04T19:09:16.401Z,102118.11
2022-12-04T19:11:44.040Z,102124.41
2022-12-04T19:14:22.720Z,102120.67
2022-12-04T19:16:42.972Z,102128.2
2022-12-04T19:19:14.090Z,102119.11
2022-12-04T19:21:43.485Z,102120.59000000001
2022-12-04T19:24:13.065Z,102122.36
2022-12-04T19:26:44.003Z,102116.54999999999
2022-12-04T19:29:14.462Z,102123.38
2022-12-04T19:31:42.903Z,102125.76000000001
2022-12-04T19:34:12.818Z,102125.78
2022-12-04T19:36:44.467Z,102129.16
2022-12-04T19:39:12.948Z,102130.18
2022-12-04T19:41:42.770Z,102138.05
2022-12-04T19:44:46.877Z,102135.86
2022-12-04T19:49:13.200Z,102135.44
2022-12-04T19:54:14.360Z,102143.66
2022-12-04T19:56:45.382Z,102149.69
2022-12-04T19:59:12.868Z,102153.54
2022-12-04T20:01:43.258Z,102152.34
2022-12-04T20:04:12.908Z,102150.31
2022-12-04T20:06:45.196Z,102157.05
2022-12-04T20:09:15.421Z,102154.33
2022-12-04T20:11:42.780Z,102145.84
2022-12-04T20:14:13.422Z,102150.04000000001
2022-12-04T20:19:15.178Z,102156.88
2022-12-04T20:24:14.683Z,102149.33
2022-12-04T20:26:44.701Z,102147.77
2022-12-04T20:29:14.667Z,102147.41
2022-12-04T20:31:44.958Z,102143.31
2022-12-04T20:34:15.001Z,102142.33
2022-12-04T20:36:44.623Z,102139.62
2022-12-04T20:39:14.237Z,102136.84
2022-12-04T20:44:14.870Z,102133.97
2022-12-04T20:46:43.676Z,102136.91
2022-12-04T20:49:20.744Z,102134.7
2022-12-04T20:51:43.551Z,102135.24
2022-12-04T20:54:16.780Z,102133.18000000001
2022-12-04T20:56:43.491Z,102133.5
2022-12-04T20:59:15.409Z,102134.42
2022-12-04T21:01:43.077Z,102132.73000000001
2022-12-04T21:04:12.944Z,102130.88
2022-12-04T21:06:43.963Z,102131.33
2022-12-04T21:09:15.028Z,102129.5
2022-12-04T21:11:44.790Z,102127.67
2022-12-04T21:14:25.224Z,102124.94
2022-12-04T21:16:43.422Z,102123.64
2022-12-04T21:19:15.830Z,102124.58
2022-12-04T21:21:43.887Z,102117.75
2022-12-04T21:24:15.094Z,102121.44
2022-12-04T21:26:43.726Z,102114.26
2022-12-04T21:31:43.014Z,102114.45
2022-12-04T21:34:16.115Z,102111.05
2022-12-04T21:36:43.048Z,102116.90999999999
2022-12-04T21:39:13.846Z,102115.06000000001
2022-12-04T21:41:52.623Z,102111.85
2022-12-04T21:44:14.987Z,102107.28
2022-12-04T21:46:43.423Z,102102.09
2022-12-04T21:49:13.833Z,102101.81
2022-12-04T21:51:57.366Z,102104.86
2022-12-04T21:54:13.111Z,102107.76
2022-12-04T21:56:43.119Z,102102.26
2022-12-04T21:59:13.284Z,102098.41
2022-12-04T22:01:43.016Z,102097.86
2022-12-04T22:04:13.101Z,102097.6
2022-12-04T22:06:42.933Z,102096.62
2022-12-04T22:09:13.278Z,102100.87
2022-12-04T22:11:43.717Z,102092.55
2022-12-04T22:14:14.428Z,102091.64
2022-12-04T22:16:43.376Z,102096.47
2022-12-04T22:19:12.842Z,102094.92
2022-12-04T22:21:42.916Z,102093.38
2022-12-04T22:24:12.977Z,102092.89
2022-12-04T22:26:42.814Z,102100.64
2022-12-04T22:29:42.079Z,102095.67
2022-12-04T22:31:43.106Z,102093.06
2022-12-04T22:34:12.867Z,102098.42
2022-12-04T22:36:43.034Z,102095.84
2022-12-04T22:41:42.894Z,102092.88
2022-12-04T22:44:13.533Z,102093.25
2022-12-04T22:46:42.898Z,102094.9
2022-12-04T22:49:12.915Z,102096.74
2022-12-04T22:51:42.844Z,102090.84
2022-12-04T22:54:13.914Z,102094.06
2022-12-04T22:56:43.214Z,102096.98
2022-12-04T22:59:12.801Z,102094.2
2022-12-04T23:01:43.047Z,102094.87000000001
2022-12-04T23:04:12.822Z,102088.94
2022-12-04T23:06:43.036Z,102084.69
2022-12-04T23:11:43.913Z,102089.12
2022-12-04T23:14:13.985Z,102087.3
2022-12-04T23:16:42.976Z,102080.53
2022-12-04T23:19:15.579Z,102086.78
2022-12-04T23:21:43.852Z,102090.58
2022-12-04T23:24:13.983Z,102104.13
2022-12-04T23:26:45.243Z,102095.23000000001
2022-12-04T23:29:36.814Z,102103.66
2022-12-04T23:31:42.985Z,102104.98999999999
2022-12-04T23:34:12.860Z,102109.38
2022-12-04T23:36:42.845Z,102105.29000000001
2022-12-04T23:39:13.107Z,102104.76999999999
2022-12-04T23:41:42.845Z,102105.44
2022-12-04T23:44:12.868Z,102110.77
2022-12-04T23:46:43.186Z,102101.08
2022-12-04T23:49:12.843Z,102099.23999999999
2022-12-04T23:51:42.929Z,102101.42
2022-12-04T23:54:13.181Z,102104.44
2022-12-04T23:56:43.190Z,102102.39
2022-12-04T23:59:12.855Z,102108.15
